createdAt,value
2023-02-01T00:00:58.872Z,4.35
2023-02-01T00:03:25.876Z,4.36
2023-02-01T00:06:00.254Z,4.36
2023-02-01T00:08:27.695Z,4.38
2023-02-01T00:11:10.842Z,4.38
2023-02-01T00:13:40.872Z,4.40
2023-02-01T00:16:17.504Z,4.41
2023-02-01T00:18:46.662Z,4.41
2023-02-01T00:21:15.723Z,4.43
2023-02-01T00:23:43.237Z,4.45
2023-02-01T00:26:18.904Z,4.46
2023-02-01T00:28:47.005Z,4.48
2023-02-01T00:31:14.080Z,4.48
2023-02-01T00:33:41.250Z,4.49
2023-02-01T00:36:10.286Z,4.48
2023-02-01T00:38:39.249Z,4.50
2023-02-01T00:41:12.850Z,4.50
2023-02-01T00:43:40.823Z,4.52
2023-02-01T00:46:08.146Z,4.52
2023-02-01T00:48:35.414Z,4.52
2023-02-01T00:51:09.858Z,4.52
2023-02-01T00:53:37.024Z,4.52
2023-02-01T00:56:04.854Z,4.53
2023-02-01T00:58:32.608Z,4.54
2023-02-01T01:01:13.044Z,4.53
2023-02-01T01:03:44.615Z,4.54
2023-02-01T01:06:15.470Z,4.55
2023-02-01T01:08:43.863Z,4.57
2023-02-01T01:11:18.540Z,4.57
2023-02-01T01:13:49.079Z,4.56
2023-02-01T01:16:16.847Z,4.58
2023-02-01T01:18:44.202Z,4.59
2023-02-01T01:21:14.286Z,4.61
2023-02-01T01:23:42.716Z,4.60
2023-02-01T01:26:17.752Z,4.61
2023-02-01T01:28:44.724Z,4.60
2023-02-01T01:31:14.494Z,4.60
2023-02-01T01:33:41.788Z,4.62
2023-02-01T01:36:12.834Z,4.62
2023-02-01T01:38:41.284Z,4.62
2023-02-01T01:41:10.142Z,4.63
2023-02-01T01:43:58.138Z,4.62
2023-02-01T01:46:35.264Z,4.62
2023-02-01T01:49:22.727Z,4.62
2023-02-01T01:51:55.215Z,4.63
2023-02-01T01:54:33.366Z,4.64
2023-02-01T01:57:07.636Z,4.63
2023-02-01T01:59:38.765Z,4.64
2023-02-01T02:02:05.662Z,4.63
2023-02-01T02:04:35.419Z,4.64
2023-02-01T02:07:12.873Z,4.62
2023-02-01T02:09:45.481Z,4.62
2023-02-01T02:12:15.084Z,4.63
2023-02-01T02:14:42.694Z,4.63
2023-02-01T02:17:37.213Z,4.63
2023-02-01T02:20:51.650Z,4.63
2023-02-01T02:23:47.622Z,4.63
2023-02-01T02:26:52.617Z,4.62
2023-02-01T02:30:20.464Z,4.63
2023-02-01T02:33:03.368Z,4.63
2023-02-01T02:36:10.788Z,4.63
2023-02-01T02:39:09.229Z,4.64
2023-02-01T02:42:11.599Z,4.64
2023-02-01T02:45:24.813Z,4.64
2023-02-01T02:48:20.784Z,4.64
2023-02-01T02:51:29.626Z,4.64
2023-02-01T02:54:29.697Z,4.64
2023-02-01T02:57:18.143Z,4.65
2023-02-01T03:00:06.819Z,4.65
2023-02-01T03:02:54.292Z,4.65
2023-02-01T03:05:21.806Z,4.65
2023-02-01T03:08:05.114Z,4.66
2023-02-01T03:10:50.563Z,4.68
2023-02-01T03:13:52.779Z,4.68
2023-02-01T03:16:46.915Z,4.68
2023-02-01T03:19:26.424Z,4.68
2023-02-01T03:22:08.929Z,4.69
2023-02-01T03:24:46.419Z,4.69
2023-02-01T03:27:31.311Z,4.69
2023-02-01T03:30:30.862Z,4.69
2023-02-01T03:33:02.278Z,4.70
2023-02-01T03:36:03.985Z,4.70
2023-02-01T03:38:51.497Z,4.71
2023-02-01T03:41:59.742Z,4.71
2023-02-01T03:44:39.664Z,4.71
2023-02-01T03:47:24.363Z,4.71
2023-02-01T03:50:09.937Z,4.73
2023-02-01T03:52:55.863Z,4.73
2023-02-01T03:55:26.089Z,4.73
2023-02-01T03:58:15.424Z,4.73
2023-02-01T04:00:50.796Z,4.72
2023-02-01T04:03:17.884Z,4.73
2023-02-01T04:05:46.175Z,4.73
2023-02-01T04:08:13.160Z,4.73
2023-02-01T04:10:40.143Z,4.74
2023-02-01T04:13:08.349Z,4.74
2023-02-01T04:15:35.817Z,4.76
2023-02-01T04:18:02.801Z,4.75
2023-02-01T04:20:29.813Z,4.75
2023-02-01T04:22:56.730Z,4.73
2023-02-01T04:25:23.719Z,4.74
2023-02-01T04:27:50.643Z,4.75
2023-02-01T04:30:18.063Z,4.74
2023-02-01T04:32:45.003Z,4.75
2023-02-01T04:35:12.649Z,4.75
2023-02-01T04:37:39.671Z,4.75
2023-02-01T04:40:07.672Z,4.73
2023-02-01T04:42:34.594Z,4.72
2023-02-01T04:45:01.521Z,4.73
2023-02-01T04:47:28.436Z,4.71
2023-02-01T04:49:55.706Z,4.72
2023-02-01T04:52:22.604Z,4.70
2023-02-01T04:54:49.497Z,4.71
2023-02-01T04:57:16.405Z,4.70
2023-02-01T04:59:43.318Z,4.70
2023-02-01T05:02:10.351Z,4.68
2023-02-01T05:04:37.332Z,4.68
2023-02-01T05:07:04.276Z,4.68
2023-02-01T05:09:31.186Z,4.67
2023-02-01T05:12:16.353Z,4.69
2023-02-01T05:14:43.455Z,4.67
2023-02-01T05:17:10.512Z,4.65
2023-02-01T05:19:37.416Z,4.65
2023-02-01T05:22:04.355Z,4.65
2023-02-01T05:24:31.239Z,4.65
2023-02-01T05:26:58.139Z,4.64
2023-02-01T05:29:25.124Z,4.64
2023-02-01T05:31:52.242Z,4.65
2023-02-01T05:34:19.266Z,4.64
2023-02-01T05:36:46.173Z,4.64
2023-02-01T05:39:13.232Z,4.64
2023-02-01T05:41:40.150Z,4.64
2023-02-01T05:44:08.211Z,4.65
2023-02-01T05:46:36.436Z,4.65
2023-02-01T05:49:04.370Z,4.65
2023-02-01T05:51:31.534Z,4.65
2023-02-01T05:53:58.457Z,4.67
2023-02-01T05:56:25.398Z,4.65
2023-02-01T05:58:52.424Z,4.65
2023-02-01T06:01:19.348Z,4.63
2023-02-01T06:03:46.341Z,4.61
2023-02-01T06:06:13.405Z,4.61
2023-02-01T06:08:43.124Z,4.58
2023-02-01T06:11:13.390Z,4.57
2023-02-01T06:13:40.459Z,4.56
2023-02-01T06:16:08.360Z,4.55
2023-02-01T06:18:36.316Z,4.54
2023-02-01T06:21:03.556Z,4.51
2023-02-01T06:23:31.613Z,4.51
2023-02-01T06:26:08.792Z,4.49
2023-02-01T06:28:35.857Z,4.48
2023-02-01T06:31:09.871Z,4.48
2023-02-01T06:33:37.564Z,4.49
2023-02-01T06:36:08.133Z,4.48
2023-02-01T06:38:35.835Z,4.48
2023-02-01T06:41:03.489Z,4.49
2023-02-01T06:43:31.263Z,4.47
2023-02-01T06:46:07.628Z,4.48
2023-02-01T06:48:35.158Z,4.47
2023-02-01T06:51:02.201Z,4.47
2023-02-01T06:53:29.423Z,4.47
2023-02-01T06:56:02.366Z,4.46
2023-02-01T06:58:34.133Z,4.47
2023-02-01T07:01:10.091Z,4.48
2023-02-01T07:03:37.311Z,4.48
2023-02-01T07:06:05.445Z,4.47
2023-02-01T07:08:36.064Z,4.48
2023-02-01T07:11:09.234Z,4.49
2023-02-01T07:13:36.828Z,4.50
2023-02-01T07:16:11.645Z,4.50
2023-02-01T07:18:38.733Z,4.51
2023-02-01T07:21:05.866Z,4.52
2023-02-01T07:23:33.138Z,4.53
2023-02-01T07:27:40.582Z,4.54
2023-02-01T07:30:08.834Z,4.54
2023-02-01T07:32:35.854Z,4.53
2023-02-01T07:35:02.792Z,4.54
2023-02-01T07:37:30.755Z,4.55
2023-02-01T07:39:57.814Z,4.54
2023-02-01T07:42:24.781Z,4.54
2023-02-01T07:44:51.682Z,4.54
2023-02-01T07:47:18.636Z,4.56
2023-02-01T07:49:45.582Z,4.57
2023-02-01T07:52:14.030Z,4.58
2023-02-01T07:54:40.975Z,4.61
2023-02-01T07:57:09.665Z,4.64
2023-02-01T07:59:36.580Z,4.67
2023-02-01T08:02:03.555Z,4.70
2023-02-01T08:04:30.506Z,4.72
2023-02-01T08:06:57.408Z,4.75
2023-02-01T08:09:24.310Z,4.78
2023-02-01T08:11:51.209Z,4.81
2023-02-01T08:14:18.236Z,4.85
2023-02-01T08:16:45.259Z,4.87
2023-02-01T08:19:12.346Z,4.90
2023-02-01T08:21:39.251Z,4.93
2023-02-01T08:24:10.762Z,4.93
2023-02-01T08:26:37.704Z,4.95
2023-02-01T08:29:07.661Z,4.98
2023-02-01T08:31:35.166Z,4.97
2023-02-01T08:34:05.146Z,4.99
2023-02-01T08:36:32.575Z,4.98
2023-02-01T08:38:59.929Z,4.99
2023-02-01T08:41:30.542Z,5.04
2023-02-01T08:43:58.475Z,5.09
2023-02-01T08:46:25.807Z,5.12
2023-02-01T08:48:53.072Z,5.16
2023-02-01T08:51:23.236Z,5.17
2023-02-01T08:53:50.847Z,5.19
2023-02-01T08:56:19.959Z,5.21
2023-02-01T08:58:46.999Z,5.23
2023-02-01T09:01:17.653Z,5.23
2023-02-01T09:03:44.772Z,5.24
2023-02-01T09:06:14.706Z,5.24
2023-02-01T09:08:42.448Z,5.26
2023-02-01T09:11:15.106Z,5.26
2023-02-01T09:13:42.661Z,5.28
2023-02-01T09:16:10.022Z,5.30
2023-02-01T09:18:41.978Z,5.29
2023-02-01T09:21:18.416Z,5.29
2023-02-01T09:23:46.107Z,5.30
2023-02-01T09:26:15.068Z,5.32
2023-02-01T09:28:44.222Z,5.31
2023-02-01T09:31:11.271Z,5.33
2023-02-01T09:33:38.262Z,5.35
2023-02-01T09:36:06.138Z,5.37
2023-02-01T09:38:34.615Z,5.40
2023-02-01T09:41:38.768Z,5.42
2023-02-01T09:44:27.677Z,5.45
2023-02-01T09:46:57.315Z,5.47
2023-02-01T09:49:31.014Z,5.49
2023-02-01T09:51:59.951Z,5.51
2023-02-01T09:54:36.208Z,5.55
2023-02-01T09:57:20.218Z,5.61
2023-02-01T10:00:01.601Z,5.69
2023-02-01T10:02:31.320Z,5.73
2023-02-01T10:05:01.769Z,5.76
2023-02-01T10:08:05.725Z,5.76
2023-02-01T10:10:50.598Z,5.79
2023-02-01T10:13:55.055Z,5.79
2023-02-01T10:16:42.376Z,5.82
2023-02-01T10:19:32.275Z,5.82
2023-02-01T10:22:09.686Z,5.82
2023-02-01T10:24:46.784Z,5.80
2023-02-01T10:27:27.010Z,5.80
2023-02-01T10:30:00.322Z,5.81
2023-02-01T10:32:35.866Z,5.80
2023-02-01T10:35:16.041Z,5.79
2023-02-01T10:37:45.988Z,5.80
2023-02-01T10:40:27.846Z,5.81
2023-02-01T10:43:03.710Z,5.81
2023-02-01T10:45:34.439Z,5.80
2023-02-01T10:48:03.449Z,5.79
2023-02-01T10:50:41.527Z,5.78
2023-02-01T10:53:22.199Z,5.75
2023-02-01T10:55:54.553Z,5.77
2023-02-01T10:58:27.640Z,5.77
2023-02-01T11:01:09.557Z,5.76
2023-02-01T11:04:01.203Z,5.74
2023-02-01T11:06:38.787Z,5.73
2023-02-01T11:09:08.637Z,5.72
2023-02-01T11:11:56.686Z,5.74
2023-02-01T11:14:26.257Z,5.73
2023-02-01T11:17:01.419Z,5.74
2023-02-01T11:19:29.748Z,5.74
2023-02-01T11:22:00.990Z,5.76
2023-02-01T11:24:36.467Z,5.79
2023-02-01T11:27:08.195Z,5.82
2023-02-01T11:29:41.283Z,5.84
2023-02-01T11:32:10.928Z,5.86
2023-02-01T11:34:44.646Z,5.86
2023-02-01T11:37:21.627Z,5.87
2023-02-01T11:40:00.244Z,5.88
2023-02-01T11:42:29.327Z,5.88
2023-02-01T11:45:24.658Z,5.88
2023-02-01T11:47:58.538Z,5.89
2023-02-01T11:50:43.508Z,5.89
2023-02-01T11:53:49.644Z,5.88
2023-02-01T11:56:43.161Z,5.85
2023-02-01T11:59:27.920Z,5.87
2023-02-01T12:02:29.357Z,5.86
2023-02-01T12:05:33.747Z,5.86
2023-02-01T12:08:34.261Z,5.86
2023-02-01T12:11:28.684Z,5.85
2023-02-01T12:13:58.251Z,5.86
2023-02-01T12:16:56.267Z,5.88
2023-02-01T12:19:56.108Z,5.87
2023-02-01T12:22:53.105Z,5.86
2023-02-01T12:26:13.175Z,5.87
2023-02-01T12:29:40.498Z,5.87
2023-02-01T12:32:35.158Z,5.88
2023-02-01T12:35:39.773Z,5.83
2023-02-01T12:38:29.668Z,5.83
2023-02-01T12:41:21.456Z,5.83
2023-02-01T12:44:50.157Z,5.83
2023-02-01T12:47:29.074Z,5.84
2023-02-01T12:50:22.469Z,5.82
2023-02-01T12:52:53.270Z,5.81
2023-02-01T12:55:43.580Z,5.79
2023-02-01T12:58:31.891Z,5.80
2023-02-01T13:01:10.719Z,5.80
2023-02-01T13:04:40.266Z,5.81
2023-02-01T13:07:19.480Z,5.82
2023-02-01T13:10:13.424Z,5.80
2023-02-01T13:12:58.722Z,5.82
2023-02-01T13:15:33.727Z,5.83
2023-02-01T13:18:05.774Z,5.83
2023-02-01T13:20:48.091Z,5.85
2023-02-01T13:23:32.248Z,5.85
2023-02-01T13:25:59.722Z,5.85
2023-02-01T13:28:50.144Z,5.85
2023-02-01T13:31:53.761Z,5.86
2023-02-01T13:35:12.094Z,5.85
2023-02-01T13:39:00.144Z,5.86
2023-02-01T13:41:42.296Z,5.86
2023-02-01T13:44:18.181Z,5.86
2023-02-01T13:46:48.022Z,5.86
2023-02-01T13:49:32.021Z,5.86
2023-02-01T13:52:00.185Z,5.88
2023-02-01T13:54:35.760Z,5.89
2023-02-01T13:57:05.420Z,5.88
2023-02-01T13:59:41.054Z,5.89
2023-02-01T14:02:41.629Z,5.89
2023-02-01T14:05:35.281Z,5.89
2023-02-01T14:08:08.621Z,5.88
2023-02-01T14:10:51.551Z,5.88
2023-02-01T14:13:33.477Z,5.89
2023-02-01T14:16:03.143Z,5.88
2023-02-01T14:18:38.791Z,5.90
2023-02-01T14:21:26.626Z,5.89
2023-02-01T14:24:08.330Z,5.90
2023-02-01T14:26:47.712Z,5.90
2023-02-01T14:29:21.596Z,5.92
2023-02-01T14:32:26.292Z,5.93
2023-02-01T14:35:00.973Z,5.93
2023-02-01T14:37:37.548Z,5.95
2023-02-01T14:40:21.443Z,5.96
2023-02-01T14:42:55.594Z,5.94
2023-02-01T14:45:22.971Z,5.95
2023-02-01T14:47:56.278Z,5.96
2023-02-01T14:50:38.284Z,5.95
2023-02-01T14:53:13.934Z,5.96
2023-02-01T14:56:07.050Z,5.96
2023-02-01T14:59:13.995Z,5.97
2023-02-01T15:01:53.116Z,5.98
2023-02-01T15:04:22.692Z,5.98
2023-02-01T15:06:59.838Z,5.98
2023-02-01T15:09:46.996Z,5.98
2023-02-01T15:12:27.715Z,5.99
2023-02-01T15:15:22.051Z,5.98
2023-02-01T15:18:00.804Z,5.97
2023-02-01T15:20:31.525Z,5.98
2023-02-01T15:23:08.783Z,5.99
2023-02-01T15:25:39.477Z,6.00
2023-02-01T15:28:14.836Z,6.00
2023-02-01T15:31:10.106Z,6.01
2023-02-01T15:33:37.351Z,6.01
2023-02-01T15:36:06.944Z,6.01
2023-02-01T15:38:39.101Z,6.01
2023-02-01T15:41:20.367Z,6.03
2023-02-01T15:43:56.368Z,6.04
2023-02-01T15:46:39.691Z,6.02
2023-02-01T15:49:37.041Z,6.02
2023-02-01T15:52:12.641Z,6.04
2023-02-01T15:54:47.792Z,6.04
2023-02-01T15:57:31.665Z,6.05
2023-02-01T16:00:07.808Z,6.06
2023-02-01T16:03:00.452Z,6.07
2023-02-01T16:05:41.721Z,6.08
2023-02-01T16:08:25.137Z,6.07
2023-02-01T16:11:14.271Z,6.08
2023-02-01T16:13:42.112Z,6.08
2023-02-01T16:16:14.705Z,6.09
2023-02-01T16:18:42.292Z,6.11
2023-02-01T16:21:10.101Z,6.10
2023-02-01T16:23:37.964Z,6.11
2023-02-01T16:26:06.763Z,6.10
2023-02-01T16:28:34.139Z,6.11
2023-02-01T16:31:02.165Z,6.11
2023-02-01T16:33:29.447Z,6.12
2023-02-01T16:36:03.016Z,6.12
2023-02-01T16:38:30.050Z,6.13
2023-02-01T16:40:58.486Z,6.12
2023-02-01T16:43:27.178Z,6.12
2023-02-01T16:45:59.742Z,6.13
2023-02-01T16:48:34.428Z,6.12
2023-02-01T16:51:09.670Z,6.12
2023-02-01T16:53:53.202Z,6.11
2023-02-01T16:56:25.730Z,6.12
2023-02-01T16:58:54.135Z,6.11
2023-02-01T17:01:21.719Z,6.12
2023-02-01T17:03:48.774Z,6.12
2023-02-01T17:06:20.417Z,6.13
2023-02-01T17:08:59.553Z,6.13
2023-02-01T17:11:27.908Z,6.12
2023-02-01T17:13:54.827Z,6.12
2023-02-01T17:16:23.742Z,6.13
2023-02-01T17:19:07.990Z,6.13
2023-02-01T17:21:49.771Z,6.14
2023-02-01T17:24:20.061Z,6.12
2023-02-01T17:26:47.763Z,6.12
2023-02-01T17:29:14.771Z,6.11
2023-02-01T17:31:45.720Z,6.11
2023-02-01T17:34:18.958Z,6.11
2023-02-01T17:36:47.583Z,6.11
2023-02-01T17:39:36.068Z,6.10
2023-02-01T17:42:05.620Z,6.10
2023-02-01T17:44:32.677Z,6.10
2023-02-01T17:46:59.716Z,6.11
2023-02-01T17:49:28.786Z,6.10
2023-02-01T17:51:57.566Z,6.10
2023-02-01T17:54:26.238Z,6.10
2023-02-01T17:56:53.257Z,6.11
2023-02-01T17:59:20.189Z,6.10
2023-02-01T18:01:47.166Z,6.10
2023-02-01T18:04:18.596Z,6.09
2023-02-01T18:06:45.961Z,6.09
2023-02-01T18:09:12.908Z,6.08
2023-02-01T18:11:39.881Z,6.10
2023-02-01T18:14:06.809Z,6.08
2023-02-01T18:16:36.350Z,6.08
2023-02-01T18:19:05.092Z,6.07
2023-02-01T18:21:44.000Z,6.06
2023-02-01T18:24:14.447Z,6.07
2023-02-01T18:26:42.948Z,6.06
2023-02-01T18:29:09.865Z,6.06
2023-02-01T18:31:47.004Z,6.06
2023-02-01T18:34:21.084Z,6.06
2023-02-01T18:36:49.652Z,6.06
2023-02-01T18:39:17.634Z,6.06
2023-02-01T18:41:47.889Z,6.04
2023-02-01T18:44:16.261Z,6.04
2023-02-01T18:46:43.836Z,6.05
2023-02-01T18:49:13.826Z,6.05
2023-02-01T18:51:42.476Z,6.07
2023-02-01T18:54:12.075Z,6.06
2023-02-01T18:56:39.543Z,6.07
2023-02-01T18:59:06.446Z,6.09
2023-02-01T19:01:33.396Z,6.10
2023-02-01T19:04:07.767Z,6.11
2023-02-01T19:06:39.347Z,6.12
2023-02-01T19:09:06.281Z,6.13
2023-02-01T19:11:33.225Z,6.13
2023-02-01T19:14:00.210Z,6.14
2023-02-01T19:16:27.161Z,6.14
2023-02-01T19:18:54.520Z,6.14
2023-02-01T19:21:21.497Z,6.16
2023-02-01T19:23:48.458Z,6.14
2023-02-01T19:26:17.507Z,6.16
2023-02-01T19:28:48.719Z,6.17
2023-02-01T19:31:17.563Z,6.17
2023-02-01T19:33:44.875Z,6.17
2023-02-01T19:36:11.822Z,6.17
2023-02-01T19:38:40.121Z,6.17
2023-02-01T19:41:07.087Z,6.17
2023-02-01T19:43:35.255Z,6.16
2023-02-01T19:46:02.983Z,6.18
2023-02-01T19:48:31.628Z,6.16
2023-02-01T19:50:59.249Z,6.16
2023-02-01T19:53:27.799Z,6.17
2023-02-01T19:55:58.888Z,6.17
2023-02-01T19:58:26.445Z,6.17
2023-02-01T20:00:57.116Z,6.19
2023-02-01T20:03:24.427Z,6.17
2023-02-01T20:05:53.671Z,6.16
2023-02-01T20:08:21.128Z,6.17
2023-02-01T20:10:48.327Z,6.18
2023-02-01T20:13:16.408Z,6.20
2023-02-01T20:15:43.756Z,6.18
2023-02-01T20:18:10.747Z,6.16
2023-02-01T20:20:37.869Z,6.16
2023-02-01T20:23:06.226Z,6.17
2023-02-01T20:25:34.221Z,6.17
2023-02-01T20:28:01.456Z,6.15
2023-02-01T20:30:29.289Z,6.16
2023-02-01T20:32:56.346Z,6.16
2023-02-01T20:35:23.671Z,6.18
2023-02-01T20:37:51.710Z,6.17
2023-02-01T20:40:18.839Z,6.16
2023-02-01T20:42:46.048Z,6.16
2023-02-01T20:45:13.253Z,6.17
2023-02-01T20:47:42.194Z,6.16
2023-02-01T20:50:10.185Z,6.16
2023-02-01T20:52:37.116Z,6.17
2023-02-01T20:55:04.590Z,6.17
2023-02-01T20:57:31.580Z,6.17
2023-02-01T20:59:58.517Z,6.15
2023-02-01T21:02:25.592Z,6.18
2023-02-01T21:04:52.688Z,6.18
2023-02-01T21:07:20.061Z,6.19
2023-02-01T21:09:47.026Z,6.17
2023-02-01T21:12:13.939Z,6.19
2023-02-01T21:14:40.884Z,6.19
2023-02-01T21:17:07.814Z,6.19
2023-02-01T21:19:43.359Z,6.21
2023-02-01T21:22:15.209Z,6.21
2023-02-01T21:24:42.668Z,6.20
2023-02-01T21:27:10.636Z,6.20
2023-02-01T21:29:37.954Z,6.22
2023-02-01T21:32:06.859Z,6.24
2023-02-01T21:34:35.206Z,6.23
2023-02-01T21:37:02.368Z,6.23
2023-02-01T21:39:29.292Z,6.23
2023-02-01T21:42:16.543Z,6.23
2023-02-01T21:44:47.945Z,6.24
2023-02-01T21:47:26.042Z,6.24
2023-02-01T21:49:53.557Z,6.24
2023-02-01T21:52:21.871Z,6.23
2023-02-01T21:54:48.907Z,6.23
2023-02-01T21:57:15.826Z,6.24
2023-02-01T21:59:43.712Z,6.23
2023-02-01T22:02:16.444Z,6.24
2023-02-01T22:04:44.287Z,6.24
2023-02-01T22:07:12.200Z,6.24
2023-02-01T22:09:39.375Z,6.24
2023-02-01T22:12:08.287Z,6.25
2023-02-01T22:14:35.192Z,6.25
2023-02-01T22:17:02.183Z,6.25
2023-02-01T22:19:29.080Z,6.26
2023-02-01T22:21:55.958Z,6.26
2023-02-01T22:24:22.907Z,6.27
2023-02-01T22:26:50.311Z,6.27
2023-02-01T22:29:19.146Z,6.29
2023-02-01T22:31:46.646Z,6.27
2023-02-01T22:34:13.889Z,6.28
2023-02-01T22:36:41.132Z,6.31
2023-02-01T22:39:08.373Z,6.30
2023-02-01T22:41:35.326Z,6.31
2023-02-01T22:44:02.293Z,6.32
2023-02-01T22:46:31.328Z,6.29
2023-02-01T22:48:59.952Z,6.30
2023-02-01T22:51:30.816Z,6.30
2023-02-01T22:53:58.691Z,6.28
2023-02-01T22:56:30.141Z,6.30
2023-02-01T22:59:02.194Z,6.30
2023-02-01T23:01:29.271Z,6.30
2023-02-01T23:03:58.878Z,6.31
2023-02-01T23:06:26.798Z,6.31
2023-02-01T23:08:59.695Z,6.30
2023-02-01T23:11:28.043Z,6.31
2023-02-01T23:13:56.275Z,6.32
2023-02-01T23:16:23.705Z,6.30
2023-02-01T23:18:50.608Z,6.31
2023-02-01T23:21:21.477Z,6.30
2023-02-01T23:23:59.952Z,6.32
2023-02-01T23:26:30.240Z,6.30
2023-02-01T23:28:58.732Z,6.31
2023-02-01T23:31:30.725Z,6.30
2023-02-01T23:33:59.747Z,6.28
2023-02-01T23:36:28.738Z,6.31
2023-02-01T23:38:56.021Z,6.31
2023-02-01T23:41:24.368Z,6.32
2023-02-01T23:43:57.729Z,6.31
2023-02-01T23:46:40.164Z,6.31
2023-02-01T23:49:10.395Z,6.30
2023-02-01T23:51:37.556Z,6.32
2023-02-01T23:54:07.527Z,6.28
2023-02-01T23:56:42.842Z,6.27
2023-02-01T23:59:21.701Z,6.27
